sensor_id;sensor_type;location;lat;lon;timestamp;P1;durP1;ratioP1;P2;durP2;ratioP2
6420;SDS011;3243;50.958;7.012;2022-08-19T00:01:59;15.10;;;12.30;;
6420;SDS011;3243;50.958;7.012;2022-08-19T00:04:28;15.07;;;11.98;;
6420;SDS011;3243;50.958;7.012;2022-08-19T00:07:01;14.02;;;12.60;;
6420;SDS011;3243;50.958;7.012;2022-08-19T00:09:30;16.30;;;13.55;;
6420;SDS011;3243;50.958;7.012;2022-08-19T00:11:57;15.52;;;13.13;;
6420;SDS011;3243;50.958;7.012;2022-08-19T00:14:24;13.82;;;12.43;;
6420;SDS011;3243;50.958;7.012;2022-08-19T00:16:52;14.40;;;12.80;;
6420;SDS011;3243;50.958;7.012;2022-08-19T00:19:21;14.60;;;13.18;;
6420;SDS011;3243;50.958;7.012;2022-08-19T00:21:48;14.80;;;13.27;;
6420;SDS011;3243;50.958;7.012;2022-08-19T00:24:15;14.70;;;13.05;;
6420;SDS011;3243;50.958;7.012;2022-08-19T00:26:42;15.85;;;12.82;;
6420;SDS011;3243;50.958;7.012;2022-08-19T00:29:11;16.35;;;14.27;;
6420;SDS011;3243;50.958;7.012;2022-08-19T00:31:40;14.47;;;12.93;;
6420;SDS011;3243;50.958;7.012;2022-08-19T00:34:09;14.80;;;13.20;;
6420;SDS011;3243;50.958;7.012;2022-08-19T00:36:38;15.03;;;13.43;;
6420;SDS011;3243;50.958;7.012;2022-08-19T00:39:05;14.67;;;12.63;;
6420;SDS011;3243;50.958;7.012;2022-08-19T00:41:32;14.30;;;12.90;;
6420;SDS011;3243;50.958;7.012;2022-08-19T00:46:35;14.73;;;13.07;;
6420;SDS011;3243;50.958;7.012;2022-08-19T00:49:39;15.40;;;12.63;;
6420;SDS011;3243;50.958;7.012;2022-08-19T00:52:11;15.67;;;12.90;;
6420;SDS011;3243;50.958;7.012;2022-08-19T00:54:41;13.83;;;12.37;;
6420;SDS011;3243;50.958;7.012;2022-08-19T00:57:09;14.93;;;13.10;;
6420;SDS011;3243;50.958;7.012;2022-08-19T00:59:41;14.10;;;12.60;;
6420;SDS011;3243;50.958;7.012;2022-08-19T01:02:27;15.07;;;13.03;;
6420;SDS011;3243;50.958;7.012;2022-08-19T01:04:55;15.57;;;13.20;;
6420;SDS011;3243;50.958;7.012;2022-08-19T01:07:22;14.40;;;12.77;;
6420;SDS011;3243;50.958;7.012;2022-08-19T01:09:49;16.88;;;13.55;;
6420;SDS011;3243;50.958;7.012;2022-08-19T01:12:17;15.53;;;13.90;;
6420;SDS011;3243;50.958;7.012;2022-08-19T01:14:45;15.05;;;13.38;;
6420;SDS011;3243;50.958;7.012;2022-08-19T01:17:12;14.37;;;12.87;;
6420;SDS011;3243;50.958;7.012;2022-08-19T01:19:41;14.80;;;12.50;;
6420;SDS011;3243;50.958;7.012;2022-08-19T01:22:31;14.57;;;12.97;;
6420;SDS011;3243;50.958;7.012;2022-08-19T01:25:09;17.23;;;13.97;;
6420;SDS011;3243;50.958;7.012;2022-08-19T01:27:41;18.27;;;13.43;;
6420;SDS011;3243;50.958;7.012;2022-08-19T01:30:21;15.40;;;13.20;;
6420;SDS011;3243;50.958;7.012;2022-08-19T01:32:53;14.97;;;13.17;;
6420;SDS011;3243;50.958;7.012;2022-08-19T01:35:22;17.40;;;12.70;;
6420;SDS011;3243;50.958;7.012;2022-08-19T01:37:52;14.97;;;13.37;;
6420;SDS011;3243;50.958;7.012;2022-08-19T01:40:27;14.27;;;12.60;;
6420;SDS011;3243;50.958;7.012;2022-08-19T01:42:59;17.30;;;14.43;;
6420;SDS011;3243;50.958;7.012;2022-08-19T01:45:27;15.77;;;13.57;;
6420;SDS011;3243;50.958;7.012;2022-08-19T01:47:56;15.73;;;14.13;;
6420;SDS011;3243;50.958;7.012;2022-08-19T01:50:27;16.75;;;14.48;;
6420;SDS011;3243;50.958;7.012;2022-08-19T01:52:55;15.73;;;14.13;;
6420;SDS011;3243;50.958;7.012;2022-08-19T01:55:32;14.67;;;13.07;;
6420;SDS011;3243;50.958;7.012;2022-08-19T01:58:00;16.50;;;14.90;;
6420;SDS011;3243;50.958;7.012;2022-08-19T02:00:31;16.80;;;14.73;;
6420;SDS011;3243;50.958;7.012;2022-08-19T02:02:58;16.30;;;14.57;;
6420;SDS011;3243;50.958;7.012;2022-08-19T02:05:27;17.67;;;14.67;;
6420;SDS011;3243;50.958;7.012;2022-08-19T02:07:55;17.20;;;15.23;;
6420;SDS011;3243;50.958;7.012;2022-08-19T02:10:23;18.53;;;15.43;;
6420;SDS011;3243;50.958;7.012;2022-08-19T02:12:50;17.33;;;15.63;;
6420;SDS011;3243;50.958;7.012;2022-08-19T02:15:17;17.03;;;15.33;;
6420;SDS011;3243;50.958;7.012;2022-08-19T02:17:45;17.52;;;15.75;;
6420;SDS011;3243;50.958;7.012;2022-08-19T02:20:13;17.33;;;15.53;;
6420;SDS011;3243;50.958;7.012;2022-08-19T02:22:41;17.77;;;14.97;;
6420;SDS011;3243;50.958;7.012;2022-08-19T02:25:09;18.97;;;16.40;;
6420;SDS011;3243;50.958;7.012;2022-08-19T02:27:38;20.07;;;16.13;;
6420;SDS011;3243;50.958;7.012;2022-08-19T02:30:06;18.77;;;16.87;;
6420;SDS011;3243;50.958;7.012;2022-08-19T02:32:39;18.17;;;16.20;;
6420;SDS011;3243;50.958;7.012;2022-08-19T02:35:19;19.87;;;17.67;;
6420;SDS011;3243;50.958;7.012;2022-08-19T02:37:47;22.17;;;17.80;;
6420;SDS011;3243;50.958;7.012;2022-08-19T02:40:33;21.33;;;17.90;;
6420;SDS011;3243;50.958;7.012;2022-08-19T02:43:02;19.93;;;17.83;;
6420;SDS011;3243;50.958;7.012;2022-08-19T02:45:35;21.83;;;18.43;;
6420;SDS011;3243;50.958;7.012;2022-08-19T02:48:06;22.30;;;19.17;;
6420;SDS011;3243;50.958;7.012;2022-08-19T02:50:47;20.60;;;18.47;;
6420;SDS011;3243;50.958;7.012;2022-08-19T02:53:22;20.63;;;18.40;;
6420;SDS011;3243;50.958;7.012;2022-08-19T02:55:51;20.80;;;18.50;;
6420;SDS011;3243;50.958;7.012;2022-08-19T02:58:18;21.93;;;19.43;;
6420;SDS011;3243;50.958;7.012;2022-08-19T03:00:52;22.00;;;19.40;;
6420;SDS011;3243;50.958;7.012;2022-08-19T03:03:21;20.73;;;18.53;;
6420;SDS011;3243;50.958;7.012;2022-08-19T03:05:49;19.83;;;17.73;;
6420;SDS011;3243;50.958;7.012;2022-08-19T03:08:22;20.87;;;18.60;;
6420;SDS011;3243;50.958;7.012;2022-08-19T03:10:50;21.60;;;18.47;;
6420;SDS011;3243;50.958;7.012;2022-08-19T03:13:18;21.67;;;18.83;;
6420;SDS011;3243;50.958;7.012;2022-08-19T03:15:45;21.70;;;18.30;;
6420;SDS011;3243;50.958;7.012;2022-08-19T03:18:13;20.93;;;18.73;;
6420;SDS011;3243;50.958;7.012;2022-08-19T03:20:47;21.07;;;18.77;;
6420;SDS011;3243;50.958;7.012;2022-08-19T03:23:16;19.63;;;17.40;;
6420;SDS011;3243;50.958;7.012;2022-08-19T03:25:45;21.07;;;18.87;;
6420;SDS011;3243;50.958;7.012;2022-08-19T03:28:33;22.23;;;18.17;;
6420;SDS011;3243;50.958;7.012;2022-08-19T03:31:04;21.63;;;18.77;;
6420;SDS011;3243;50.958;7.012;2022-08-19T03:33:53;21.03;;;18.37;;
6420;SDS011;3243;50.958;7.012;2022-08-19T03:36:21;21.70;;;18.93;;
6420;SDS011;3243;50.958;7.012;2022-08-19T03:38:52;23.60;;;18.07;;
6420;SDS011;3243;50.958;7.012;2022-08-19T03:41:29;19.90;;;17.80;;
6420;SDS011;3243;50.958;7.012;2022-08-19T03:44:10;22.07;;;19.77;;
6420;SDS011;3243;50.958;7.012;2022-08-19T03:46:43;23.37;;;19.87;;
6420;SDS011;3243;50.958;7.012;2022-08-19T03:49:11;22.90;;;20.27;;
6420;SDS011;3243;50.958;7.012;2022-08-19T03:51:40;21.30;;;19.00;;
6420;SDS011;3243;50.958;7.012;2022-08-19T03:54:09;20.57;;;18.37;;
6420;SDS011;3243;50.958;7.012;2022-08-19T03:56:39;21.40;;;19.10;;
6420;SDS011;3243;50.958;7.012;2022-08-19T03:59:09;21.80;;;19.60;;
6420;SDS011;3243;50.958;7.012;2022-08-19T04:01:39;21.07;;;18.90;;
6420;SDS011;3243;50.958;7.012;2022-08-19T04:04:07;21.50;;;19.20;;
6420;SDS011;3243;50.958;7.012;2022-08-19T04:06:35;22.67;;;19.87;;
6420;SDS011;3243;50.958;7.012;2022-08-19T04:09:08;21.83;;;19.53;;
6420;SDS011;3243;50.958;7.012;2022-08-19T04:11:38;23.50;;;20.47;;
6420;SDS011;3243;50.958;7.012;2022-08-19T04:14:14;24.77;;;20.63;;
6420;SDS011;3243;50.958;7.012;2022-08-19T04:16:43;21.63;;;19.17;;
6420;SDS011;3243;50.958;7.012;2022-08-19T04:19:10;21.70;;;18.10;;
6420;SDS011;3243;50.958;7.012;2022-08-19T04:21:37;22.73;;;20.00;;
6420;SDS011;3243;50.958;7.012;2022-08-19T04:24:04;23.70;;;19.87;;
6420;SDS011;3243;50.958;7.012;2022-08-19T04:26:34;24.93;;;18.97;;
6420;SDS011;3243;50.958;7.012;2022-08-19T04:29:04;21.77;;;19.20;;
6420;SDS011;3243;50.958;7.012;2022-08-19T04:31:40;20.83;;;18.43;;
6420;SDS011;3243;50.958;7.012;2022-08-19T04:34:09;21.77;;;19.03;;
6420;SDS011;3243;50.958;7.012;2022-08-19T04:36:38;21.40;;;18.13;;
6420;SDS011;3243;50.958;7.012;2022-08-19T04:39:08;21.03;;;18.83;;
6420;SDS011;3243;50.958;7.012;2022-08-19T04:41:36;22.00;;;18.97;;
6420;SDS011;3243;50.958;7.012;2022-08-19T04:44:22;24.77;;;18.53;;
6420;SDS011;3243;50.958;7.012;2022-08-19T04:46:49;20.93;;;18.20;;
6420;SDS011;3243;50.958;7.012;2022-08-19T04:49:21;20.40;;;18.23;;
6420;SDS011;3243;50.958;7.012;2022-08-19T04:54:17;22.80;;;19.83;;
6420;SDS011;3243;50.958;7.012;2022-08-19T04:57:04;24.27;;;19.50;;
6420;SDS011;3243;50.958;7.012;2022-08-19T04:59:35;21.67;;;19.37;;
6420;SDS011;3243;50.958;7.012;2022-08-19T05:02:03;21.63;;;19.43;;
6420;SDS011;3243;50.958;7.012;2022-08-19T05:04:30;20.80;;;18.63;;
6420;SDS011;3243;50.958;7.012;2022-08-19T05:06:59;23.17;;;20.13;;
6420;SDS011;3243;50.958;7.012;2022-08-19T05:09:28;21.60;;;19.33;;
6420;SDS011;3243;50.958;7.012;2022-08-19T05:12:16;20.33;;;18.23;;
6420;SDS011;3243;50.958;7.012;2022-08-19T05:14:43;20.00;;;17.90;;
6420;SDS011;3243;50.958;7.012;2022-08-19T05:17:11;25.43;;;20.53;;
6420;SDS011;3243;50.958;7.012;2022-08-19T05:19:58;24.57;;;18.80;;
6420;SDS011;3243;50.958;7.012;2022-08-19T05:22:45;24.23;;;19.33;;
6420;SDS011;3243;50.958;7.012;2022-08-19T05:25:15;28.70;;;21.27;;
6420;SDS011;3243;50.958;7.012;2022-08-19T05:27:45;28.20;;;22.30;;
6420;SDS011;3243;50.958;7.012;2022-08-19T05:30:13;25.13;;;20.80;;
6420;SDS011;3243;50.958;7.012;2022-08-19T05:32:40;29.83;;;24.50;;
6420;SDS011;3243;50.958;7.012;2022-08-19T05:35:08;31.67;;;26.30;;
6420;SDS011;3243;50.958;7.012;2022-08-19T05:37:35;29.13;;;24.23;;
6420;SDS011;3243;50.958;7.012;2022-08-19T05:40:02;35.17;;;27.75;;
6420;SDS011;3243;50.958;7.012;2022-08-19T05:42:30;34.83;;;27.90;;
6420;SDS011;3243;50.958;7.012;2022-08-19T05:44:56;35.70;;;28.53;;
6420;SDS011;3243;50.958;7.012;2022-08-19T05:47:23;36.95;;;30.77;;
6420;SDS011;3243;50.958;7.012;2022-08-19T05:49:50;44.40;;;34.13;;
6420;SDS011;3243;50.958;7.012;2022-08-19T05:52:17;46.67;;;35.30;;
6420;SDS011;3243;50.958;7.012;2022-08-19T05:54:51;43.40;;;34.63;;
6420;SDS011;3243;50.958;7.012;2022-08-19T05:57:22;47.07;;;36.33;;
6420;SDS011;3243;50.958;7.012;2022-08-19T05:59:50;47.90;;;37.20;;
6420;SDS011;3243;50.958;7.012;2022-08-19T06:02:23;43.40;;;34.27;;
6420;SDS011;3243;50.958;7.012;2022-08-19T06:04:51;41.38;;;32.70;;
6420;SDS011;3243;50.958;7.012;2022-08-19T06:07:18;42.30;;;32.42;;
6420;SDS011;3243;50.958;7.012;2022-08-19T06:09:45;40.38;;;30.75;;
6420;SDS011;3243;50.958;7.012;2022-08-19T06:12:25;45.30;;;33.42;;
6420;SDS011;3243;50.958;7.012;2022-08-19T06:15:02;36.45;;;29.95;;
6420;SDS011;3243;50.958;7.012;2022-08-19T06:17:32;34.43;;;29.07;;
6420;SDS011;3243;50.958;7.012;2022-08-19T06:20:01;37.30;;;29.70;;
6420;SDS011;3243;50.958;7.012;2022-08-19T06:22:37;32.95;;;28.63;;
6420;SDS011;3243;50.958;7.012;2022-08-19T06:25:04;32.83;;;27.80;;
6420;SDS011;3243;50.958;7.012;2022-08-19T06:27:31;34.53;;;27.10;;
6420;SDS011;3243;50.958;7.012;2022-08-19T06:29:59;30.83;;;25.43;;
6420;SDS011;3243;50.958;7.012;2022-08-19T06:32:26;38.15;;;26.98;;
6420;SDS011;3243;50.958;7.012;2022-08-19T06:34:53;33.45;;;26.30;;
6420;SDS011;3243;50.958;7.012;2022-08-19T06:37:20;31.08;;;25.75;;
6420;SDS011;3243;50.958;7.012;2022-08-19T06:39:48;30.88;;;24.98;;
6420;SDS011;3243;50.958;7.012;2022-08-19T06:42:15;31.75;;;23.38;;
6420;SDS011;3243;50.958;7.012;2022-08-19T06:44:47;32.90;;;24.70;;
6420;SDS011;3243;50.958;7.012;2022-08-19T06:47:19;32.35;;;25.40;;
6420;SDS011;3243;50.958;7.012;2022-08-19T06:49:52;30.48;;;24.90;;
6420;SDS011;3243;50.958;7.012;2022-08-19T06:52:26;30.45;;;24.95;;
6420;SDS011;3243;50.958;7.012;2022-08-19T06:54:53;32.78;;;25.17;;
6420;SDS011;3243;50.958;7.012;2022-08-19T06:57:25;31.80;;;25.77;;
6420;SDS011;3243;50.958;7.012;2022-08-19T06:59:52;28.85;;;24.20;;
6420;SDS011;3243;50.958;7.012;2022-08-19T07:02:21;26.52;;;23.65;;
6420;SDS011;3243;50.958;7.012;2022-08-19T07:04:52;30.13;;;25.02;;
6420;SDS011;3243;50.958;7.012;2022-08-19T07:07:20;29.17;;;23.60;;
6420;SDS011;3243;50.958;7.012;2022-08-19T07:09:49;30.50;;;24.25;;
6420;SDS011;3243;50.958;7.012;2022-08-19T07:12:26;28.52;;;23.83;;
6420;SDS011;3243;50.958;7.012;2022-08-19T07:14:57;32.05;;;24.25;;
6420;SDS011;3243;50.958;7.012;2022-08-19T07:17:24;27.88;;;24.02;;
6420;SDS011;3243;50.958;7.012;2022-08-19T07:19:52;27.63;;;22.92;;
6420;SDS011;3243;50.958;7.012;2022-08-19T07:22:20;29.83;;;22.25;;
6420;SDS011;3243;50.958;7.012;2022-08-19T07:24:49;28.90;;;23.05;;
6420;SDS011;3243;50.958;7.012;2022-08-19T07:27:17;29.55;;;21.95;;
6420;SDS011;3243;50.958;7.012;2022-08-19T07:29:50;25.80;;;20.33;;
6420;SDS011;3243;50.958;7.012;2022-08-19T07:32:23;30.98;;;23.88;;
6420;SDS011;3243;50.958;7.012;2022-08-19T07:34:52;24.58;;;20.98;;
6420;SDS011;3243;50.958;7.012;2022-08-19T07:37:21;24.23;;;20.40;;
6420;SDS011;3243;50.958;7.012;2022-08-19T07:39:53;27.27;;;21.15;;
6420;SDS011;3243;50.958;7.012;2022-08-19T07:42:20;25.58;;;21.98;;
6420;SDS011;3243;50.958;7.012;2022-08-19T07:44:47;24.60;;;20.02;;
6420;SDS011;3243;50.958;7.012;2022-08-19T07:47:16;24.63;;;19.88;;
6420;SDS011;3243;50.958;7.012;2022-08-19T07:50:05;22.55;;;17.13;;
6420;SDS011;3243;50.958;7.012;2022-08-19T07:52:34;31.50;;;21.95;;
6420;SDS011;3243;50.958;7.012;2022-08-19T07:55:05;25.67;;;21.02;;
6420;SDS011;3243;50.958;7.012;2022-08-19T07:57:54;28.05;;;21.52;;
6420;SDS011;3243;50.958;7.012;2022-08-19T08:00:21;31.10;;;22.90;;
6420;SDS011;3243;50.958;7.012;2022-08-19T08:02:50;26.20;;;21.20;;
6420;SDS011;3243;50.958;7.012;2022-08-19T08:05:20;30.70;;;22.75;;
6420;SDS011;3243;50.958;7.012;2022-08-19T08:08:09;28.25;;;20.27;;
6420;SDS011;3243;50.958;7.012;2022-08-19T08:10:55;29.13;;;23.67;;
6420;SDS011;3243;50.958;7.012;2022-08-19T08:13:23;33.33;;;24.75;;
6420;SDS011;3243;50.958;7.012;2022-08-19T08:15:51;30.23;;;23.73;;
6420;SDS011;3243;50.958;7.012;2022-08-19T08:18:22;30.30;;;25.23;;
6420;SDS011;3243;50.958;7.012;2022-08-19T08:20:53;35.28;;;25.67;;
6420;SDS011;3243;50.958;7.012;2022-08-19T08:23:23;32.58;;;24.80;;
6420;SDS011;3243;50.958;7.012;2022-08-19T08:25:55;32.85;;;23.75;;
6420;SDS011;3243;50.958;7.012;2022-08-19T08:28:24;31.45;;;25.10;;
6420;SDS011;3243;50.958;7.012;2022-08-19T08:30:55;34.20;;;25.83;;
6420;SDS011;3243;50.958;7.012;2022-08-19T08:33:24;36.90;;;25.38;;
6420;SDS011;3243;50.958;7.012;2022-08-19T08:36:09;37.60;;;28.90;;
6420;SDS011;3243;50.958;7.012;2022-08-19T08:38:37;34.30;;;26.33;;
6420;SDS011;3243;50.958;7.012;2022-08-19T08:43:40;38.17;;;26.52;;
6420;SDS011;3243;50.958;7.012;2022-08-19T08:46:13;32.97;;;25.75;;
6420;SDS011;3243;50.958;7.012;2022-08-19T08:51:28;41.80;;;30.20;;
6420;SDS011;3243;50.958;7.012;2022-08-19T08:54:02;35.42;;;25.40;;
6420;SDS011;3243;50.958;7.012;2022-08-19T08:56:35;35.00;;;27.05;;
6420;SDS011;3243;50.958;7.012;2022-08-19T08:59:10;39.30;;;28.30;;
6420;SDS011;3243;50.958;7.012;2022-08-19T09:01:45;42.72;;;28.42;;
6420;SDS011;3243;50.958;7.012;2022-08-19T09:04:12;38.40;;;28.60;;
6420;SDS011;3243;50.958;7.012;2022-08-19T09:09:14;40.58;;;27.75;;
6420;SDS011;3243;50.958;7.012;2022-08-19T09:11:55;35.35;;;27.15;;
6420;SDS011;3243;50.958;7.012;2022-08-19T09:14:49;35.97;;;26.42;;
6420;SDS011;3243;50.958;7.012;2022-08-19T09:17:26;37.30;;;26.77;;
6420;SDS011;3243;50.958;7.012;2022-08-19T09:22:39;37.28;;;26.70;;
6420;SDS011;3243;50.958;7.012;2022-08-19T09:25:12;35.67;;;26.17;;
6420;SDS011;3243;50.958;7.012;2022-08-19T09:27:41;34.35;;;24.10;;
6420;SDS011;3243;50.958;7.012;2022-08-19T09:30:12;41.08;;;29.05;;
6420;SDS011;3243;50.958;7.012;2022-08-19T09:32:44;33.67;;;24.60;;
6420;SDS011;3243;50.958;7.012;2022-08-19T09:35:12;28.55;;;20.40;;
6420;SDS011;3243;50.958;7.012;2022-08-19T09:37:39;26.15;;;19.50;;
6420;SDS011;3243;50.958;7.012;2022-08-19T09:40:09;26.45;;;19.70;;
6420;SDS011;3243;50.958;7.012;2022-08-19T09:42:37;24.88;;;18.98;;
6420;SDS011;3243;50.958;7.012;2022-08-19T09:45:16;29.77;;;22.30;;
6420;SDS011;3243;50.958;7.012;2022-08-19T09:47:47;31.30;;;22.77;;
6420;SDS011;3243;50.958;7.012;2022-08-19T09:50:19;29.30;;;21.92;;
6420;SDS011;3243;50.958;7.012;2022-08-19T09:52:47;27.52;;;21.23;;
6420;SDS011;3243;50.958;7.012;2022-08-19T09:55:23;21.48;;;17.38;;
6420;SDS011;3243;50.958;7.012;2022-08-19T09:57:59;24.08;;;16.50;;
6420;SDS011;3243;50.958;7.012;2022-08-19T10:00:26;18.75;;;14.25;;
6420;SDS011;3243;50.958;7.012;2022-08-19T10:02:53;19.92;;;16.33;;
6420;SDS011;3243;50.958;7.012;2022-08-19T10:05:20;17.85;;;14.45;;
6420;SDS011;3243;50.958;7.012;2022-08-19T10:08:07;22.15;;;15.85;;
6420;SDS011;3243;50.958;7.012;2022-08-19T10:10:39;20.45;;;16.15;;
6420;SDS011;3243;50.958;7.012;2022-08-19T10:13:14;16.25;;;14.07;;
6420;SDS011;3243;50.958;7.012;2022-08-19T10:15:43;18.48;;;14.55;;
6420;SDS011;3243;50.958;7.012;2022-08-19T10:18:14;16.42;;;12.70;;
6420;SDS011;3243;50.958;7.012;2022-08-19T10:20:45;16.67;;;13.63;;
6420;SDS011;3243;50.958;7.012;2022-08-19T10:23:18;17.10;;;12.55;;
6420;SDS011;3243;50.958;7.012;2022-08-19T10:25:46;12.05;;;9.65;;
6420;SDS011;3243;50.958;7.012;2022-08-19T10:28:14;18.77;;;12.55;;
6420;SDS011;3243;50.958;7.012;2022-08-19T10:30:41;12.50;;;10.15;;
6420;SDS011;3243;50.958;7.012;2022-08-19T10:33:08;15.02;;;11.25;;
6420;SDS011;3243;50.958;7.012;2022-08-19T10:35:36;15.82;;;9.10;;
6420;SDS011;3243;50.958;7.012;2022-08-19T10:38:22;15.27;;;12.80;;
6420;SDS011;3243;50.958;7.012;2022-08-19T10:40:57;16.98;;;13.35;;
6420;SDS011;3243;50.958;7.012;2022-08-19T10:43:24;16.35;;;13.73;;
6420;SDS011;3243;50.958;7.012;2022-08-19T10:45:52;19.08;;;15.10;;
6420;SDS011;3243;50.958;7.012;2022-08-19T10:48:21;16.98;;;14.23;;
6420;SDS011;3243;50.958;7.012;2022-08-19T10:50:48;15.45;;;13.32;;
6420;SDS011;3243;50.958;7.012;2022-08-19T10:53:34;15.90;;;13.55;;
6420;SDS011;3243;50.958;7.012;2022-08-19T10:56:01;20.13;;;12.23;;
6420;SDS011;3243;50.958;7.012;2022-08-19T10:58:46;14.93;;;12.25;;
6420;SDS011;3243;50.958;7.012;2022-08-19T11:01:14;15.48;;;12.75;;
6420;SDS011;3243;50.958;7.012;2022-08-19T11:03:41;16.75;;;14.93;;
6420;SDS011;3243;50.958;7.012;2022-08-19T11:06:08;16.45;;;13.13;;
6420;SDS011;3243;50.958;7.012;2022-08-19T11:08:35;17.10;;;13.50;;
6420;SDS011;3243;50.958;7.012;2022-08-19T11:11:07;14.00;;;12.50;;
6420;SDS011;3243;50.958;7.012;2022-08-19T11:13:36;15.55;;;11.98;;
6420;SDS011;3243;50.958;7.012;2022-08-19T11:16:09;15.35;;;12.65;;
6420;SDS011;3243;50.958;7.012;2022-08-19T11:18:44;15.98;;;14.10;;
6420;SDS011;3243;50.958;7.012;2022-08-19T11:21:18;23.35;;;14.90;;
6420;SDS011;3243;50.958;7.012;2022-08-19T11:23:59;18.77;;;15.55;;
6420;SDS011;3243;50.958;7.012;2022-08-19T11:26:28;16.45;;;13.88;;
6420;SDS011;3243;50.958;7.012;2022-08-19T11:28:57;19.73;;;16.85;;
6420;SDS011;3243;50.958;7.012;2022-08-19T11:31:26;16.73;;;13.20;;
6420;SDS011;3243;50.958;7.012;2022-08-19T11:33:57;18.45;;;11.80;;
6420;SDS011;3243;50.958;7.012;2022-08-19T11:36:25;16.00;;;13.02;;
6420;SDS011;3243;50.958;7.012;2022-08-19T11:38:53;13.57;;;12.18;;
6420;SDS011;3243;50.958;7.012;2022-08-19T11:41:21;13.95;;;12.35;;
6420;SDS011;3243;50.958;7.012;2022-08-19T11:43:50;16.23;;;13.82;;
6420;SDS011;3243;50.958;7.012;2022-08-19T11:46:19;14.18;;;11.90;;
6420;SDS011;3243;50.958;7.012;2022-08-19T11:48:46;15.45;;;13.68;;
6420;SDS011;3243;50.958;7.012;2022-08-19T11:51:16;13.00;;;11.52;;
6420;SDS011;3243;50.958;7.012;2022-08-19T11:53:45;16.67;;;11.88;;
6420;SDS011;3243;50.958;7.012;2022-08-19T11:56:12;13.43;;;12.13;;
6420;SDS011;3243;50.958;7.012;2022-08-19T11:58:39;15.25;;;12.45;;
6420;SDS011;3243;50.958;7.012;2022-08-19T12:01:13;15.32;;;12.35;;
6420;SDS011;3243;50.958;7.012;2022-08-19T12:03:42;14.32;;;11.38;;
6420;SDS011;3243;50.958;7.012;2022-08-19T12:06:14;13.13;;;10.75;;
6420;SDS011;3243;50.958;7.012;2022-08-19T12:08:43;12.73;;;10.43;;
6420;SDS011;3243;50.958;7.012;2022-08-19T12:11:11;12.07;;;10.70;;
6420;SDS011;3243;50.958;7.012;2022-08-19T12:13:39;11.38;;;9.73;;
6420;SDS011;3243;50.958;7.012;2022-08-19T12:16:11;13.95;;;11.80;;
6420;SDS011;3243;50.958;7.012;2022-08-19T12:18:41;11.25;;;9.80;;
6420;SDS011;3243;50.958;7.012;2022-08-19T12:21:14;11.25;;;9.63;;
6420;SDS011;3243;50.958;7.012;2022-08-19T12:23:43;13.02;;;9.77;;
6420;SDS011;3243;50.958;7.012;2022-08-19T12:26:11;17.23;;;10.65;;
6420;SDS011;3243;50.958;7.012;2022-08-19T12:28:38;11.93;;;9.32;;
6420;SDS011;3243;50.958;7.012;2022-08-19T12:31:05;14.52;;;10.68;;
6420;SDS011;3243;50.958;7.012;2022-08-19T12:33:32;12.02;;;10.75;;
6420;SDS011;3243;50.958;7.012;2022-08-19T12:36:00;11.68;;;10.45;;
6420;SDS011;3243;50.958;7.012;2022-08-19T12:38:29;9.77;;;8.77;;
6420;SDS011;3243;50.958;7.012;2022-08-19T12:40:56;10.18;;;8.93;;
6420;SDS011;3243;50.958;7.012;2022-08-19T12:43:25;12.73;;;8.80;;
6420;SDS011;3243;50.958;7.012;2022-08-19T12:45:53;9.85;;;8.85;;
6420;SDS011;3243;50.958;7.012;2022-08-19T12:48:21;11.23;;;7.70;;
6420;SDS011;3243;50.958;7.012;2022-08-19T12:51:00;9.52;;;8.52;;
6420;SDS011;3243;50.958;7.012;2022-08-19T12:53:35;10.13;;;9.13;;
6420;SDS011;3243;50.958;7.012;2022-08-19T12:56:04;9.50;;;6.90;;
6420;SDS011;3243;50.958;7.012;2022-08-19T12:58:37;9.68;;;7.30;;
6420;SDS011;3243;50.958;7.012;2022-08-19T13:01:11;10.23;;;7.70;;
6420;SDS011;3243;50.958;7.012;2022-08-19T13:03:44;8.82;;;7.88;;
6420;SDS011;3243;50.958;7.012;2022-08-19T13:06:12;10.05;;;8.23;;
6420;SDS011;3243;50.958;7.012;2022-08-19T13:08:44;12.15;;;8.48;;
6420;SDS011;3243;50.958;7.012;2022-08-19T13:11:13;10.35;;;8.02;;
6420;SDS011;3243;50.958;7.012;2022-08-19T13:13:44;13.50;;;9.23;;
6420;SDS011;3243;50.958;7.012;2022-08-19T13:16:13;10.02;;;8.57;;
6420;SDS011;3243;50.958;7.012;2022-08-19T13:18:41;11.77;;;8.73;;
6420;SDS011;3243;50.958;7.012;2022-08-19T13:21:09;11.52;;;8.85;;
6420;SDS011;3243;50.958;7.012;2022-08-19T13:23:40;16.77;;;10.25;;
6420;SDS011;3243;50.958;7.012;2022-08-19T13:26:08;15.07;;;9.57;;
6420;SDS011;3243;50.958;7.012;2022-08-19T13:28:36;12.32;;;10.13;;
6420;SDS011;3243;50.958;7.012;2022-08-19T13:31:23;12.02;;;9.13;;
6420;SDS011;3243;50.958;7.012;2022-08-19T13:34:10;12.73;;;8.20;;
6420;SDS011;3243;50.958;7.012;2022-08-19T13:36:37;9.02;;;7.60;;
6420;SDS011;3243;50.958;7.012;2022-08-19T13:39:05;10.73;;;7.65;;
6420;SDS011;3243;50.958;7.012;2022-08-19T13:41:33;8.23;;;7.40;;
6420;SDS011;3243;50.958;7.012;2022-08-19T13:44:01;10.43;;;8.35;;
6420;SDS011;3243;50.958;7.012;2022-08-19T13:46:28;10.43;;;7.15;;
6420;SDS011;3243;50.958;7.012;2022-08-19T13:48:55;8.57;;;6.90;;
6420;SDS011;3243;50.958;7.012;2022-08-19T13:51:22;8.60;;;6.47;;
6420;SDS011;3243;50.958;7.012;2022-08-19T13:53:49;9.27;;;5.93;;
6420;SDS011;3243;50.958;7.012;2022-08-19T13:56:18;8.88;;;5.93;;
6420;SDS011;3243;50.958;7.012;2022-08-19T13:58:51;9.63;;;5.93;;
6420;SDS011;3243;50.958;7.012;2022-08-19T14:01:23;7.32;;;5.47;;
6420;SDS011;3243;50.958;7.012;2022-08-19T14:03:50;8.63;;;5.63;;
6420;SDS011;3243;50.958;7.012;2022-08-19T14:06:18;7.53;;;5.20;;
6420;SDS011;3243;50.958;7.012;2022-08-19T14:08:46;7.03;;;5.32;;
6420;SDS011;3243;50.958;7.012;2022-08-19T14:11:12;7.70;;;5.95;;
6420;SDS011;3243;50.958;7.012;2022-08-19T14:13:40;11.93;;;5.38;;
6420;SDS011;3243;50.958;7.012;2022-08-19T14:16:10;8.02;;;5.70;;
6420;SDS011;3243;50.958;7.012;2022-08-19T14:18:39;8.68;;;5.88;;
6420;SDS011;3243;50.958;7.012;2022-08-19T14:21:06;7.82;;;6.00;;
6420;SDS011;3243;50.958;7.012;2022-08-19T14:23:33;8.18;;;6.00;;
6420;SDS011;3243;50.958;7.012;2022-08-19T14:26:09;8.52;;;5.68;;
6420;SDS011;3243;50.958;7.012;2022-08-19T14:28:39;7.35;;;5.53;;
6420;SDS011;3243;50.958;7.012;2022-08-19T14:31:11;7.20;;;5.50;;
6420;SDS011;3243;50.958;7.012;2022-08-19T14:33:39;7.95;;;5.20;;
6420;SDS011;3243;50.958;7.012;2022-08-19T14:36:06;6.72;;;5.53;;
6420;SDS011;3243;50.958;7.012;2022-08-19T14:38:33;7.50;;;5.47;;
6420;SDS011;3243;50.958;7.012;2022-08-19T14:41:13;5.43;;;4.93;;
6420;SDS011;3243;50.958;7.012;2022-08-19T14:43:48;8.25;;;6.03;;
6420;SDS011;3243;50.958;7.012;2022-08-19T14:46:18;7.38;;;6.10;;
6420;SDS011;3243;50.958;7.012;2022-08-19T14:48:47;7.78;;;6.60;;
6420;SDS011;3243;50.958;7.012;2022-08-19T14:51:18;6.38;;;5.30;;
6420;SDS011;3243;50.958;7.012;2022-08-19T14:53:45;8.35;;;4.95;;
6420;SDS011;3243;50.958;7.012;2022-08-19T14:56:16;7.13;;;4.55;;
6420;SDS011;3243;50.958;7.012;2022-08-19T14:58:47;6.80;;;4.22;;
6420;SDS011;3243;50.958;7.012;2022-08-19T15:01:18;7.57;;;4.68;;
6420;SDS011;3243;50.958;7.012;2022-08-19T15:03:47;5.88;;;4.50;;
6420;SDS011;3243;50.958;7.012;2022-08-19T15:06:15;6.13;;;3.83;;
6420;SDS011;3243;50.958;7.012;2022-08-19T15:08:42;5.82;;;4.30;;
6420;SDS011;3243;50.958;7.012;2022-08-19T15:11:12;7.60;;;4.38;;
6420;SDS011;3243;50.958;7.012;2022-08-19T15:13:41;4.97;;;4.10;;
6420;SDS011;3243;50.958;7.012;2022-08-19T15:16:08;5.38;;;4.00;;
6420;SDS011;3243;50.958;7.012;2022-08-19T15:18:43;5.85;;;3.72;;
6420;SDS011;3243;50.958;7.012;2022-08-19T15:21:11;4.15;;;3.55;;
6420;SDS011;3243;50.958;7.012;2022-08-19T15:23:53;7.22;;;3.75;;
6420;SDS011;3243;50.958;7.012;2022-08-19T15:26:22;5.95;;;4.00;;
6420;SDS011;3243;50.958;7.012;2022-08-19T15:28:49;7.05;;;3.95;;
6420;SDS011;3243;50.958;7.012;2022-08-19T15:31:16;5.85;;;3.90;;